Time;durP1;ratioP1;P1;durP2;ratioP2;P2;SDS_P1;SDS_P2;PMS_P1;PMS_P2;Temp;Humidity;BMP_temperature;BMP_pressure;BME280_temperature;BME280_humidity;BME280_pressure;Samples;Min_cycle;Max_cycle;Signal;HPM_P1;HPM_P2
2021/12/28 00:01:03;;;;;;;217.27;47.65;;;;;;;;;;4992557;28;20463;-65
2021/12/28 00:03:29;;;;;;;217.88;49.38;;;;;;;;;;4992878;28;20345;-65
2021/12/28 00:05:54;;;;;;;225.65;47.58;;;;;;;;;;4992522;28;20426;-66
2021/12/28 00:08:20;;;;;;;213.30;46.97;;;;;;;;;;4992513;28;20493;-66
2021/12/28 00:10:47;;;;;;;183.05;44.15;;;;;;;;;;4992378;28;20432;-66
2021/12/28 00:13:14;;;;;;;189.93;48.95;;;;;;;;;;4975073;28;20347;-67
2021/12/28 00:16:00;;;;;;;212.32;46.90;;;;;;;;;;4992261;28;20508;-66
2021/12/28 00:18:26;;;;;;;179.48;42.88;;;;;;;;;;4992380;28;20021;-65
2021/12/28 00:20:53;;;;;;;177.43;43.42;;;;;;;;;;4992119;28;20110;-66
2021/12/28 00:23:21;;;;;;;182.90;39.85;;;;;;;;;;4990933;28;20052;-65
2021/12/28 00:25:48;;;;;;;192.68;40.63;;;;;;;;;;4992102;28;20490;-65
2021/12/28 00:28:13;;;;;;;181.10;42.03;;;;;;;;;;4992964;28;20406;-65
2021/12/28 00:30:39;;;;;;;172.85;40.80;;;;;;;;;;4990587;28;20048;-65
2021/12/28 00:33:06;;;;;;;167.10;40.15;;;;;;;;;;4992433;28;20406;-65
2021/12/28 00:35:33;;;;;;;175.98;41.90;;;;;;;;;;4992351;28;20052;-65
2021/12/28 00:37:59;;;;;;;161.10;40.58;;;;;;;;;;4991988;28;20497;-65
2021/12/28 00:40:25;;;;;;;165.40;38.92;;;;;;;;;;4992141;28;20428;-66
2021/12/28 00:42:50;;;;;;;160.23;39.08;;;;;;;;;;4992371;28;20506;-66
2021/12/28 00:45:17;;;;;;;163.88;39.38;;;;;;;;;;4991643;28;20391;-69
2021/12/28 00:47:42;;;;;;;158.80;38.30;;;;;;;;;;4992162;28;20439;-65
2021/12/28 00:50:09;;;;;;;145.00;35.90;;;;;;;;;;4990301;28;20402;-65
2021/12/28 00:52:35;;;;;;;142.40;37.35;;;;;;;;;;4991209;28;20458;-66
2021/12/28 00:55:01;;;;;;;149.27;38.92;;;;;;;;;;4993039;28;20432;-66
2021/12/28 00:57:26;;;;;;;151.25;37.45;;;;;;;;;;4992232;28;20507;-65
2021/12/28 00:59:51;;;;;;;145.38;33.88;;;;;;;;;;4991028;28;20321;-66
2021/12/28 01:02:17;;;;;;;128.98;35.15;;;;;;;;;;4981614;28;20119;-66
2021/12/28 01:04:42;;;;;;;125.22;35.50;;;;;;;;;;4971699;28;20511;-66
2021/12/28 01:07:07;;;;;;;142.15;34.25;;;;;;;;;;4954054;28;20033;-65
2021/12/28 01:09:33;;;;;;;125.70;32.97;;;;;;;;;;4971028;28;20484;-66
2021/12/28 01:12:00;;;;;;;130.38;32.78;;;;;;;;;;4971198;28;20364;-66
2021/12/28 01:14:26;;;;;;;127.47;32.58;;;;;;;;;;4971973;28;20408;-65
2021/12/28 01:16:52;;;;;;;135.13;32.72;;;;;;;;;;4971774;28;20432;-66
2021/12/28 01:19:17;;;;;;;110.72;31.40;;;;;;;;;;4971593;28;20428;-66
2021/12/28 01:21:43;;;;;;;108.65;30.20;;;;;;;;;;4971400;28;20459;-66
2021/12/28 01:24:08;;;;;;;122.75;30.73;;;;;;;;;;4953462;28;20523;-66
2021/12/28 01:26:33;;;;;;;109.93;29.23;;;;;;;;;;4971421;28;20364;-67
2021/12/28 01:28:59;;;;;;;108.38;29.38;;;;;;;;;;4954068;28;20333;-65
2021/12/28 01:31:24;;;;;;;116.45;31.35;;;;;;;;;;4971995;28;20432;-65
2021/12/28 01:33:50;;;;;;;98.78;26.88;;;;;;;;;;4953534;28;20440;-66
2021/12/28 01:36:15;;;;;;;119.03;28.85;;;;;;;;;;4971673;28;20325;-66
2021/12/28 01:38:41;;;;;;;106.93;28.88;;;;;;;;;;4972580;28;20033;-66
2021/12/28 01:41:10;;;;;;;94.40;26.67;;;;;;;;;;4937141;28;20025;-65
2021/12/28 01:43:38;;;;;;;99.82;27.83;;;;;;;;;;4954089;28;20412;-65
2021/12/28 01:46:04;;;;;;;90.32;26.27;;;;;;;;;;4970981;28;20460;-67
2021/12/28 01:48:38;;;;;;;74.47;24.60;;;;;;;;;;4971716;28;20420;-66
2021/12/28 01:51:15;;;;;;;91.28;25.33;;;;;;;;;;4970456;28;20554;-66
2021/12/28 01:53:41;;;;;;;85.15;25.85;;;;;;;;;;4970775;28;20751;-66
2021/12/28 01:56:10;;;;;;;93.13;27.50;;;;;;;;;;4972184;28;20482;-66
2021/12/28 01:58:35;;;;;;;80.85;25.20;;;;;;;;;;4953822;28;20029;-67
2021/12/28 02:01:01;;;;;;;77.55;23.63;;;;;;;;;;4972163;28;20017;-66
2021/12/28 02:03:29;;;;;;;86.35;24.40;;;;;;;;;;4953147;28;20534;-65
2021/12/28 02:05:55;;;;;;;76.97;22.33;;;;;;;;;;4970657;28;20530;-65
2021/12/28 02:08:21;;;;;;;75.28;22.23;;;;;;;;;;4971025;28;20507;-66
2021/12/28 02:10:49;;;;;;;69.90;19.75;;;;;;;;;;4970728;28;20558;-66
2021/12/28 02:13:15;;;;;;;70.88;22.50;;;;;;;;;;4972135;28;20116;-65
2021/12/28 02:15:41;;;;;;;74.10;23.70;;;;;;;;;;4952874;28;20045;-67
2021/12/28 02:18:09;;;;;;;66.22;21.92;;;;;;;;;;4971559;28;20337;-66
2021/12/28 02:20:35;;;;;;;80.60;22.42;;;;;;;;;;4953007;28;20409;-65
2021/12/28 02:23:00;;;;;;;69.35;20.85;;;;;;;;;;4953054;28;20419;-66
2021/12/28 02:25:27;;;;;;;78.70;23.25;;;;;;;;;;4970553;28;20033;-66
2021/12/28 02:27:52;;;;;;;71.10;21.30;;;;;;;;;;4971886;28;20314;-65
2021/12/28 02:30:20;;;;;;;66.55;21.92;;;;;;;;;;4971800;28;20328;-66
2021/12/28 02:32:47;;;;;;;63.55;19.40;;;;;;;;;;4953010;28;20336;-67
2021/12/28 02:35:24;;;;;;;63.97;19.38;;;;;;;;;;4952588;28;20535;-66
2021/12/28 02:37:51;;;;;;;65.82;20.10;;;;;;;;;;4970701;28;20552;-65
2021/12/28 02:40:19;;;;;;;59.88;22.02;;;;;;;;;;4970289;28;20432;-66
2021/12/28 02:42:44;;;;;;;68.97;21.50;;;;;;;;;;4969850;28;20029;-66
2021/12/28 02:45:13;;;;;;;63.90;21.05;;;;;;;;;;4970234;28;20443;-66
2021/12/28 02:47:44;;;;;;;61.28;18.45;;;;;;;;;;4953159;28;20397;-66
2021/12/28 02:50:12;;;;;;;63.55;17.90;;;;;;;;;;4953362;28;20337;-66
2021/12/28 02:52:38;;;;;;;55.17;19.42;;;;;;;;;;4969197;28;20445;-66
2021/12/28 02:55:09;;;;;;;61.33;19.70;;;;;;;;;;4971333;28;20336;-66
2021/12/28 02:57:35;;;;;;;64.35;19.67;;;;;;;;;;4969706;28;20083;-66
2021/12/28 03:00:01;;;;;;;60.33;19.63;;;;;;;;;;4969893;28;20336;-65
2021/12/28 03:02:27;;;;;;;50.92;18.00;;;;;;;;;;4969396;28;20029;-65
2021/12/28 03:04:52;;;;;;;58.75;17.25;;;;;;;;;;4970582;28;20499;-67
2021/12/28 03:07:18;;;;;;;61.85;19.35;;;;;;;;;;4969669;28;20555;-66
2021/12/28 03:09:43;;;;;;;58.72;19.67;;;;;;;;;;4969728;28;20461;-66
2021/12/28 03:12:09;;;;;;;55.40;17.00;;;;;;;;;;4971114;28;20132;-66
2021/12/28 03:14:35;;;;;;;60.83;18.63;;;;;;;;;;4969907;28;20591;-66
2021/12/28 03:17:01;;;;;;;48.95;17.13;;;;;;;;;;4971002;28;20309;-66
2021/12/28 03:19:26;;;;;;;41.45;17.25;;;;;;;;;;4952495;28;20328;-67
2021/12/28 03:21:52;;;;;;;54.90;17.48;;;;;;;;;;4969895;28;20340;-66
2021/12/28 03:24:17;;;;;;;41.00;15.93;;;;;;;;;;4969803;28;20332;-66
2021/12/28 03:26:43;;;;;;;43.03;16.63;;;;;;;;;;4969734;28;20340;-66
2021/12/28 03:29:09;;;;;;;44.78;15.75;;;;;;;;;;4969337;28;20462;-67
2021/12/28 03:31:34;;;;;;;58.28;17.73;;;;;;;;;;4951453;28;20452;-65
2021/12/28 03:33:59;;;;;;;43.35;15.40;;;;;;;;;;4972247;28;20042;-66
2021/12/28 03:36:30;;;;;;;46.67;15.90;;;;;;;;;;4973707;28;20029;-65
2021/12/28 03:39:00;;;;;;;49.50;17.45;;;;;;;;;;4956435;28;20344;-66
2021/12/28 03:41:27;;;;;;;47.17;19.70;;;;;;;;;;4973435;28;20487;-68
2021/12/28 03:43:54;;;;;;;46.75;16.23;;;;;;;;;;4955880;28;20326;-65
2021/12/28 03:46:22;;;;;;;40.60;15.13;;;;;;;;;;4955373;28;20444;-67
2021/12/28 03:48:47;;;;;;;44.53;16.00;;;;;;;;;;4955675;28;20436;-65
2021/12/28 03:51:13;;;;;;;43.00;14.73;;;;;;;;;;4972771;28;20467;-66
2021/12/28 03:53:39;;;;;;;37.88;14.90;;;;;;;;;;4973552;28;20433;-66
2021/12/28 03:56:07;;;;;;;44.55;15.10;;;;;;;;;;4973014;28;20459;-65
2021/12/28 03:58:33;;;;;;;39.17;14.77;;;;;;;;;;4972832;28;20450;-65
2021/12/28 04:00:59;;;;;;;43.42;15.15;;;;;;;;;;4955162;28;20372;-68
2021/12/28 04:03:24;;;;;;;42.72;14.32;;;;;;;;;;4955837;28;20057;-65
2021/12/28 04:05:51;;;;;;;36.95;13.43;;;;;;;;;;4956781;28;20328;-66
2021/12/28 04:08:22;;;;;;;37.78;15.35;;;;;;;;;;4973342;28;20316;-66
2021/12/28 04:11:02;;;;;;;40.15;13.80;;;;;;;;;;4972586;28;20582;-66
2021/12/28 04:13:27;;;;;;;41.15;13.82;;;;;;;;;;4972844;28;20037;-65
2021/12/28 04:15:53;;;;;;;40.55;14.32;;;;;;;;;;4972532;28;20440;-65
2021/12/28 04:18:19;;;;;;;35.88;16.52;;;;;;;;;;4955562;28;20699;-66
2021/12/28 04:20:44;;;;;;;38.80;13.85;;;;;;;;;;4972503;28;20387;-67
2021/12/28 04:23:09;;;;;;;35.28;13.35;;;;;;;;;;4974559;28;20034;-65
2021/12/28 04:25:35;;;;;;;32.50;13.35;;;;;;;;;;4972209;28;20472;-66
2021/12/28 04:28:00;;;;;;;32.17;14.23;;;;;;;;;;4955597;28;20430;-66
2021/12/28 04:30:26;;;;;;;41.33;13.52;;;;;;;;;;4974608;28;20444;-65
2021/12/28 04:32:51;;;;;;;34.75;14.88;;;;;;;;;;4972080;28;20298;-66
2021/12/28 04:35:17;;;;;;;35.95;13.38;;;;;;;;;;4973843;28;20099;-65
2021/12/28 04:37:43;;;;;;;30.63;12.30;;;;;;;;;;4972324;28;20337;-66
2021/12/28 04:40:10;;;;;;;40.85;14.10;;;;;;;;;;4972336;28;20506;-65
2021/12/28 04:42:35;;;;;;;37.20;13.07;;;;;;;;;;4972335;28;20092;-65
2021/12/28 04:45:01;;;;;;;31.20;14.70;;;;;;;;;;4954396;28;20108;-65
2021/12/28 04:47:26;;;;;;;32.88;13.35;;;;;;;;;;4972453;28;20103;-65
2021/12/28 04:49:51;;;;;;;31.30;13.48;;;;;;;;;;4973476;28;20061;-65
2021/12/28 04:52:17;;;;;;;35.97;12.50;;;;;;;;;;4971930;28;20360;-66
2021/12/28 04:54:43;;;;;;;35.10;13.52;;;;;;;;;;4971914;28;20454;-66
2021/12/28 04:57:08;;;;;;;38.65;14.75;;;;;;;;;;4954437;28;20452;-66
2021/12/28 04:59:34;;;;;;;44.83;14.73;;;;;;;;;;4971833;28;20416;-66
2021/12/28 05:02:00;;;;;;;35.40;13.13;;;;;;;;;;4954486;28;20388;-66
2021/12/28 05:04:25;;;;;;;29.17;12.68;;;;;;;;;;4954868;28;20395;-66
2021/12/28 05:06:54;;;;;;;35.22;14.00;;;;;;;;;;4972976;28;20095;-66
2021/12/28 05:09:20;;;;;;;33.30;14.43;;;;;;;;;;4954041;28;20445;-66
2021/12/28 05:11:46;;;;;;;34.78;13.93;;;;;;;;;;4954175;28;20434;-65
2021/12/28 05:14:12;;;;;;;28.38;11.55;;;;;;;;;;4972562;28;20467;-66
2021/12/28 05:16:37;;;;;;;35.90;13.95;;;;;;;;;;4971548;28;20440;-67
2021/12/28 05:19:05;;;;;;;31.42;12.27;;;;;;;;;;4971898;28;20175;-65
2021/12/28 05:21:31;;;;;;;31.20;13.75;;;;;;;;;;4972978;28;20329;-66
2021/12/28 05:23:57;;;;;;;30.25;11.23;;;;;;;;;;4972735;28;20338;-66
2021/12/28 05:26:22;;;;;;;27.35;11.77;;;;;;;;;;4971522;28;20099;-67
2021/12/28 05:28:48;;;;;;;33.60;13.82;;;;;;;;;;4971959;28;20396;-66
2021/12/28 05:31:13;;;;;;;30.67;13.30;;;;;;;;;;4971650;28;20051;-66
2021/12/28 05:33:39;;;;;;;25.17;12.13;;;;;;;;;;4953803;28;20057;-68
2021/12/28 05:36:05;;;;;;;29.67;12.07;;;;;;;;;;4972829;28;20411;-65
2021/12/28 05:38:31;;;;;;;34.85;12.38;;;;;;;;;;4972134;28;20037;-65
2021/12/28 05:40:56;;;;;;;28.77;11.30;;;;;;;;;;4971119;28;20345;-66
2021/12/28 05:43:21;;;;;;;32.47;13.23;;;;;;;;;;4971656;28;20403;-67
2021/12/28 05:45:46;;;;;;;26.90;13.32;;;;;;;;;;4970723;28;20395;-66
2021/12/28 05:48:12;;;;;;;28.67;12.23;;;;;;;;;;4953297;28;20436;-65
2021/12/28 05:50:37;;;;;;;26.65;13.00;;;;;;;;;;4952581;28;20340;-65
2021/12/28 05:53:03;;;;;;;25.00;11.55;;;;;;;;;;4971071;28;20484;-66
2021/12/28 05:55:29;;;;;;;34.53;12.65;;;;;;;;;;4953527;28;20398;-65
2021/12/28 05:57:54;;;;;;;32.45;12.85;;;;;;;;;;4970288;28;20071;-67
2021/12/28 06:00:19;;;;;;;25.55;11.35;;;;;;;;;;4953310;28;20444;-65
2021/12/28 06:02:45;;;;;;;25.25;11.63;;;;;;;;;;4970722;28;20047;-66
2021/12/28 06:05:11;;;;;;;28.35;11.98;;;;;;;;;;4971647;28;20411;-66
2021/12/28 06:07:37;;;;;;;27.45;12.02;;;;;;;;;;4953419;28;20425;-66
2021/12/28 06:10:03;;;;;;;32.08;12.88;;;;;;;;;;4970899;28;20087;-65
2021/12/28 06:12:28;;;;;;;39.85;13.07;;;;;;;;;;4936538;28;20412;-66
2021/12/28 06:14:54;;;;;;;27.33;11.15;;;;;;;;;;4971883;28;20399;-66
2021/12/28 06:17:19;;;;;;;24.77;11.05;;;;;;;;;;4970324;28;20104;-65
2021/12/28 06:19:45;;;;;;;22.92;10.73;;;;;;;;;;4970113;28;20445;-65
2021/12/28 06:22:10;;;;;;;26.20;12.65;;;;;;;;;;4952301;28;20402;-66
2021/12/28 06:24:35;;;;;;;25.73;11.15;;;;;;;;;;4970437;28;20328;-65
2021/12/28 06:27:01;;;;;;;21.35;10.10;;;;;;;;;;4970398;28;20451;-66
2021/12/28 06:29:26;;;;;;;23.42;11.15;;;;;;;;;;4972256;28;20491;-67
2021/12/28 06:31:52;;;;;;;27.63;11.75;;;;;;;;;;4952473;28;20502;-65
2021/12/28 06:34:17;;;;;;;25.30;9.77;;;;;;;;;;4970342;28;20510;-65
2021/12/28 06:36:43;;;;;;;24.30;10.90;;;;;;;;;;4970066;28;20112;-65
2021/12/28 06:39:09;;;;;;;25.15;10.98;;;;;;;;;;4970366;28;20352;-68
2021/12/28 06:41:34;;;;;;;27.23;11.10;;;;;;;;;;4970519;28;20025;-66
2021/12/28 06:44:00;;;;;;;29.27;11.85;;;;;;;;;;4969610;28;20626;-65
2021/12/28 06:46:25;;;;;;;25.15;11.02;;;;;;;;;;4970093;28;20377;-66
2021/12/28 06:48:50;;;;;;;25.50;10.52;;;;;;;;;;4971304;28;20429;-65
2021/12/28 06:51:16;;;;;;;24.70;10.90;;;;;;;;;;4969637;28;20396;-66
2021/12/28 06:53:41;;;;;;;24.55;10.82;;;;;;;;;;4952276;28;20029;-66
2021/12/28 06:56:07;;;;;;;23.10;10.80;;;;;;;;;;4969885;28;20037;-66
2021/12/28 06:58:33;;;;;;;24.55;11.30;;;;;;;;;;4971041;28;20471;-68
2021/12/28 07:00:58;;;;;;;23.35;11.00;;;;;;;;;;4969534;28;20470;-66
2021/12/28 07:03:23;;;;;;;24.23;12.15;;;;;;;;;;4970144;28;20399;-65
2021/12/28 07:05:49;;;;;;;24.60;11.77;;;;;;;;;;4970698;28;20429;-66
2021/12/28 07:08:14;;;;;;;24.70;11.00;;;;;;;;;;4969541;28;20112;-66
2021/12/28 07:10:40;;;;;;;23.90;10.73;;;;;;;;;;4969517;28;20523;-66
2021/12/28 07:13:06;;;;;;;21.83;11.68;;;;;;;;;;4970157;28;20037;-66
2021/12/28 07:15:32;;;;;;;21.65;9.43;;;;;;;;;;4969555;28;20436;-65
2021/12/28 07:17:57;;;;;;;23.35;10.02;;;;;;;;;;4969562;28;20029;-67
2021/12/28 07:20:22;;;;;;;23.83;10.93;;;;;;;;;;4969782;28;20045;-65
2021/12/28 07:22:48;;;;;;;23.02;10.80;;;;;;;;;;4951989;28;20435;-67
2021/12/28 07:25:13;;;;;;;25.70;10.10;;;;;;;;;;4952210;28;20476;-65
2021/12/28 07:27:39;;;;;;;17.58;9.52;;;;;;;;;;4969321;28;20455;-66
2021/12/28 07:30:07;;;;;;;28.10;11.60;;;;;;;;;;4952324;28;20026;-66
2021/12/28 07:32:32;;;;;;;21.33;10.68;;;;;;;;;;4969769;28;20317;-66
2021/12/28 07:34:58;;;;;;;24.15;12.13;;;;;;;;;;4969165;28;20340;-68
2021/12/28 07:37:23;;;;;;;24.42;10.10;;;;;;;;;;4971030;28;20503;-66
2021/12/28 07:39:50;;;;;;;16.88;8.75;;;;;;;;;;4970080;28;20304;-65
2021/12/28 07:42:16;;;;;;;21.50;10.20;;;;;;;;;;4970591;28;20406;-66
2021/12/28 07:44:41;;;;;;;22.05;10.68;;;;;;;;;;4969779;28;20052;-66
2021/12/28 07:47:07;;;;;;;17.90;9.43;;;;;;;;;;4969509;28;20061;-66
2021/12/28 07:49:32;;;;;;;25.45;10.65;;;;;;;;;;4969095;28;20419;-66
2021/12/28 07:51:58;;;;;;;22.75;10.82;;;;;;;;;;4948484;28;20507;-66
2021/12/28 07:54:23;;;;;;;24.83;10.07;;;;;;;;;;4969118;28;20433;-66
2021/12/28 07:56:48;;;;;;;24.52;11.60;;;;;;;;;;4969286;28;20356;-66
2021/12/28 07:59:14;;;;;;;25.35;10.85;;;;;;;;;;4969305;28;20305;-67
2021/12/28 08:01:39;;;;;;;20.95;10.40;;;;;;;;;;4951733;28;20328;-65
2021/12/28 08:04:04;;;;;;;17.35;8.50;;;;;;;;;;4969167;28;20360;-67
2021/12/28 08:06:30;;;;;;;22.17;11.25;;;;;;;;;;4951773;28;20317;-66
2021/12/28 08:08:55;;;;;;;21.88;11.20;;;;;;;;;;4967731;28;20052;-65
2021/12/28 08:11:22;;;;;;;22.48;9.80;;;;;;;;;;4969156;28;20345;-67
2021/12/28 08:13:48;;;;;;;17.90;9.82;;;;;;;;;;4970208;28;20064;-65
2021/12/28 08:16:13;;;;;;;22.70;9.68;;;;;;;;;;4969218;28;20026;-67
2021/12/28 08:18:38;;;;;;;16.17;9.15;;;;;;;;;;4970742;28;20471;-66
2021/12/28 08:21:04;;;;;;;21.40;9.73;;;;;;;;;;4973877;28;20436;-66
2021/12/28 08:23:29;;;;;;;22.88;10.02;;;;;;;;;;4954967;28;20450;-66
2021/12/28 08:25:54;;;;;;;19.60;9.40;;;;;;;;;;4972670;28;20399;-66
2021/12/28 08:28:20;;;;;;;20.85;9.43;;;;;;;;;;4974501;28;20317;-67
2021/12/28 08:30:46;;;;;;;18.83;9.60;;;;;;;;;;4972594;28;20524;-66
2021/12/28 08:33:12;;;;;;;20.05;10.30;;;;;;;;;;4972998;28;20337;-66
2021/12/28 08:35:41;;;;;;;25.33;9.00;;;;;;;;;;4955366;28;20021;-66
2021/12/28 08:38:08;;;;;;;17.55;8.82;;;;;;;;;;4973442;28;20317;-66
2021/12/28 08:40:33;;;;;;;22.30;9.30;;;;;;;;;;4954998;28;20496;-66
2021/12/28 08:42:59;;;;;;;23.85;10.55;;;;;;;;;;4973708;28;20451;-67
2021/12/28 08:45:24;;;;;;;19.05;9.80;;;;;;;;;;4971984;28;20372;-65
2021/12/28 08:47:50;;;;;;;19.40;9.13;;;;;;;;;;4954315;28;20436;-66
2021/12/28 08:50:15;;;;;;;19.75;8.43;;;;;;;;;;4972388;28;20351;-65
2021/12/28 08:52:41;;;;;;;19.40;8.55;;;;;;;;;;4954114;28;20455;-65
2021/12/28 08:55:07;;;;;;;22.80;9.88;;;;;;;;;;4971982;28;20401;-66
2021/12/28 08:57:32;;;;;;;16.75;8.43;;;;;;;;;;4954318;28;20065;-66
2021/12/28 08:59:58;;;;;;;20.20;9.55;;;;;;;;;;4971953;28;20179;-66
2021/12/28 09:02:23;;;;;;;20.65;8.77;;;;;;;;;;4971547;28;20052;-66
2021/12/28 09:04:48;;;;;;;19.55;9.30;;;;;;;;;;4972052;28;20440;-66
2021/12/28 09:07:16;;;;;;;19.42;8.50;;;;;;;;;;4971987;28;20244;-66
2021/12/28 09:09:42;;;;;;;16.45;8.82;;;;;;;;;;4972472;28;20475;-65
2021/12/28 09:12:07;;;;;;;17.88;8.40;;;;;;;;;;4954011;28;20433;-66
2021/12/28 09:14:33;;;;;;;16.98;8.60;;;;;;;;;;4971541;28;20510;-66
2021/12/28 09:16:59;;;;;;;18.80;9.00;;;;;;;;;;4971544;28;20048;-68
2021/12/28 09:19:24;;;;;;;17.05;8.82;;;;;;;;;;4971303;28;20475;-66
2021/12/28 09:21:50;;;;;;;16.50;8.38;;;;;;;;;;4953614;28;20060;-67
2021/12/28 09:24:15;;;;;;;17.23;8.57;;;;;;;;;;4953799;28;20017;-65
2021/12/28 09:26:40;;;;;;;21.25;8.50;;;;;;;;;;4953343;28;20033;-65
2021/12/28 09:29:06;;;;;;;21.38;9.23;;;;;;;;;;4971252;28;20456;-67
2021/12/28 09:31:33;;;;;;;20.38;10.00;;;;;;;;;;4970908;28;20412;-66
2021/12/28 09:33:58;;;;;;;22.83;10.55;;;;;;;;;;4953588;28;20399;-66
2021/12/28 09:36:24;;;;;;;16.98;8.07;;;;;;;;;;4953793;28;20350;-66
2021/12/28 09:38:49;;;;;;;22.67;9.52;;;;;;;;;;4970784;28;20017;-66
2021/12/28 09:41:15;;;;;;;19.75;9.57;;;;;;;;;;4971253;28;20029;-65
2021/12/28 09:43:41;;;;;;;18.73;8.80;;;;;;;;;;4953332;28;20375;-66
2021/12/28 09:46:07;;;;;;;20.13;9.20;;;;;;;;;;4970724;28;20391;-66
2021/12/28 09:48:33;;;;;;;23.67;10.40;;;;;;;;;;4972795;28;20332;-66
2021/12/28 09:50:59;;;;;;;20.00;9.60;;;;;;;;;;4971042;28;20330;-65
2021/12/28 09:53:24;;;;;;;18.17;7.55;;;;;;;;;;4970573;28;20516;-65
2021/12/28 09:55:53;;;;;;;21.88;8.70;;;;;;;;;;4970418;28;20486;-66
2021/12/28 09:58:18;;;;;;;17.60;8.38;;;;;;;;;;4953068;28;20420;-66
2021/12/28 10:00:44;;;;;;;23.00;9.50;;;;;;;;;;4969102;28;20318;-66
2021/12/28 10:03:09;;;;;;;21.63;9.10;;;;;;;;;;4968670;28;20539;-66
2021/12/28 10:05:35;;;;;;;21.33;10.10;;;;;;;;;;4972851;28;20116;-66
2021/12/28 10:08:02;;;;;;;21.38;10.38;;;;;;;;;;4970358;28;20029;-66
2021/12/28 10:10:30;;;;;;;22.00;10.93;;;;;;;;;;4953009;28;20420;-66
2021/12/28 10:12:57;;;;;;;19.48;10.30;;;;;;;;;;4970792;28;20464;-65
2021/12/28 10:15:26;;;;;;;19.65;9.43;;;;;;;;;;4970275;28;20049;-67
2021/12/28 10:17:54;;;;;;;24.50;10.70;;;;;;;;;;4971026;28;20369;-66
2021/12/28 10:20:25;;;;;;;21.98;10.82;;;;;;;;;;4953010;28;20722;-66
2021/12/28 10:22:53;;;;;;;21.65;10.27;;;;;;;;;;4952397;28;20447;-66
2021/12/28 10:25:23;;;;;;;24.35;11.25;;;;;;;;;;4953895;28;20457;-66
2021/12/28 10:27:51;;;;;;;24.38;9.77;;;;;;;;;;4969885;28;20443;-66
2021/12/28 10:30:21;;;;;;;24.73;10.40;;;;;;;;;;4952954;28;20314;-66
2021/12/28 10:32:56;;;;;;;22.80;9.57;;;;;;;;;;4969643;28;20056;-66
2021/12/28 10:35:47;;;;;;;23.13;10.48;;;;;;;;;;4969816;28;20456;-67
2021/12/28 10:38:22;;;;;;;23.00;10.20;;;;;;;;;;4970157;28;20467;-66
2021/12/28 10:40:55;;;;;;;21.52;10.52;;;;;;;;;;4969277;28;20343;-66
2021/12/28 10:43:23;;;;;;;20.40;9.88;;;;;;;;;;4970300;28;20417;-66
2021/12/28 10:45:51;;;;;;;17.50;9.43;;;;;;;;;;4970434;28;20424;-66
2021/12/28 10:48:26;;;;;;;21.98;10.32;;;;;;;;;;4952090;28;20456;-65
2021/12/28 10:51:00;;;;;;;18.55;10.45;;;;;;;;;;4970198;28;20458;-66
2021/12/28 10:53:36;;;;;;;19.30;9.65;;;;;;;;;;4952257;28;20433;-66
2021/12/28 10:56:04;;;;;;;25.08;9.82;;;;;;;;;;4970026;28;20053;-65
2021/12/28 10:58:44;;;;;;;21.48;10.35;;;;;;;;;;4970278;28;20467;-65
2021/12/28 11:01:26;;;;;;;22.23;10.15;;;;;;;;;;4969484;28;20429;-66
2021/12/28 11:03:59;;;;;;;17.48;9.15;;;;;;;;;;4952042;28;20033;-65
2021/12/28 11:06:28;;;;;;;21.58;9.65;;;;;;;;;;4969555;28;20120;-66
2021/12/28 11:08:56;;;;;;;19.52;9.57;;;;;;;;;;4970352;28;20464;-66
2021/12/28 11:11:24;;;;;;;17.63;9.23;;;;;;;;;;4969395;28;20395;-65
2021/12/28 11:13:53;;;;;;;17.70;9.00;;;;;;;;;;4952136;28;20424;-66
2021/12/28 11:16:20;;;;;;;19.95;8.80;;;;;;;;;;4969505;28;20490;-67
2021/12/28 11:18:47;;;;;;;20.20;9.52;;;;;;;;;;4969144;28;20174;-66
2021/12/28 11:21:14;;;;;;;19.95;9.43;;;;;;;;;;4968854;28;20108;-66
2021/12/28 11:23:43;;;;;;;22.75;9.73;;;;;;;;;;4969103;28;20441;-66
2021/12/28 11:26:24;;;;;;;20.15;10.30;;;;;;;;;;4969095;28;20030;-66
2021/12/28 11:28:56;;;;;;;21.23;9.77;;;;;;;;;;4969921;28;20444;-66
2021/12/28 11:31:24;;;;;;;16.90;8.38;;;;;;;;;;4969303;28;20060;-68
2021/12/28 11:34:11;;;;;;;21.00;9.80;;;;;;;;;;4970046;28;20338;-67
2021/12/28 11:36:53;;;;;;;23.75;11.18;;;;;;;;;;4967795;28;20402;-66
2021/12/28 11:39:22;;;;;;;14.48;8.15;;;;;;;;;;4969045;28;20147;-66
2021/12/28 11:41:49;;;;;;;16.77;9.68;;;;;;;;;;4969260;28;20437;-65
2021/12/28 11:44:16;;;;;;;30.55;12.40;;;;;;;;;;4951154;28;20045;-66
2021/12/28 11:46:42;;;;;;;43.45;14.73;;;;;;;;;;4968649;28;20424;-66
2021/12/28 11:49:09;;;;;;;57.20;16.80;;;;;;;;;;4969206;28;20375;-65
2021/12/28 11:51:35;;;;;;;41.95;14.98;;;;;;;;;;4968408;28;20468;-65
2021/12/28 11:54:03;;;;;;;43.42;14.27;;;;;;;;;;4968712;28;20492;-65
2021/12/28 11:56:31;;;;;;;52.75;17.50;;;;;;;;;;4973131;28;20401;-66
2021/12/28 11:58:58;;;;;;;66.57;22.75;;;;;;;;;;4972950;28;20420;-65
2021/12/28 12:01:37;;;;;;;67.90;21.25;;;;;;;;;;4972721;28;20401;-66
2021/12/28 12:04:03;;;;;;;69.05;20.52;;;;;;;;;;4972894;28;20384;-66
2021/12/28 12:07:00;;;;;;;66.95;19.00;;;;;;;;;;4972435;28;20349;-66
2021/12/28 12:09:26;;;;;;;75.50;20.60;;;;;;;;;;4972804;28;20056;-65
2021/12/28 12:12:10;;;;;;;69.05;19.65;;;;;;;;;;4972495;28;20506;-66
2021/12/28 12:14:51;;;;;;;67.43;20.48;;;;;;;;;;4972138;28;20437;-65
2021/12/28 12:17:28;;;;;;;76.22;19.83;;;;;;;;;;4972009;28;20021;-65
2021/12/28 12:19:57;;;;;;;83.70;23.38;;;;;;;;;;4973011;28;20371;-66
2021/12/28 12:22:39;;;;;;;77.13;22.67;;;;;;;;;;4972649;28;20405;-65
2021/12/28 12:25:18;;;;;;;65.00;21.40;;;;;;;;;;4972165;28;20092;-65
2021/12/28 12:27:53;;;;;;;86.78;27.38;;;;;;;;;;4972537;28;20034;-66
2021/12/28 12:30:24;;;;;;;92.10;25.85;;;;;;;;;;4955295;28;20022;-65
2021/12/28 12:35:46;;;;;;;95.82;26.10;;;;;;;;;;4973390;28;20310;-65
2021/12/28 12:38:11;;;;;;;84.20;23.63;;;;;;;;;;4973264;28;20052;-65
2021/12/28 12:41:00;;;;;;;81.85;22.60;;;;;;;;;;4970327;28;20460;-65
2021/12/28 12:43:36;;;;;;;94.95;24.13;;;;;;;;;;4954292;28;20496;-65
2021/12/28 12:46:05;;;;;;;80.68;22.85;;;;;;;;;;4971443;28;20099;-66
2021/12/28 12:48:35;;;;;;;;;;;;;;;;;;4972999;28;20038;-66
2021/12/28 12:51:19;;;;;;;84.40;21.58;;;;;;;;;;4971767;28;20373;-67
2021/12/28 12:54:09;;;;;;;84.20;23.48;;;;;;;;;;4971653;28;20464;-65
2021/12/28 12:56:37;;;;;;;74.18;22.90;;;;;;;;;;4971424;28;20368;-69
2021/12/28 12:59:06;;;;;;;88.00;23.83;;;;;;;;;;4971604;28;20399;-66
2021/12/28 13:01:37;;;;;;;;;;;;;;;;;;4955431;28;20356;-66
2021/12/28 13:04:26;;;;;;;73.55;22.08;;;;;;;;;;4971757;28;20318;-65
2021/12/28 13:07:07;;;;;;;72.88;21.25;;;;;;;;;;4971330;28;20407;-65
2021/12/28 13:09:37;;;;;;;69.70;21.52;;;;;;;;;;4971517;28;20452;-65
2021/12/28 13:12:06;;;;;;;72.45;20.55;;;;;;;;;;4970968;28;20463;-67
2021/12/28 13:14:32;;;;;;;87.43;24.33;;;;;;;;;;4971944;28;20029;-66
2021/12/28 13:17:17;;;;;;;73.60;21.92;;;;;;;;;;4953786;28;20448;-66
2021/12/28 13:20:00;;;;;;;80.63;20.77;;;;;;;;;;4971723;28;20463;-67
2021/12/28 13:22:26;;;;;;;66.00;20.90;;;;;;;;;;4971369;28;20435;-66
2021/12/28 13:24:53;;;;;;;69.40;21.30;;;;;;;;;;4972422;28;20438;-65
2021/12/28 13:27:19;;;;;;;77.47;22.35;;;;;;;;;;4971524;28;20344;-66
2021/12/28 13:29:46;;;;;;;74.35;21.17;;;;;;;;;;4971092;28;20349;-66
2021/12/28 13:32:26;;;;;;;71.95;21.63;;;;;;;;;;4971274;28;20441;-65
2021/12/28 13:35:12;;;;;;;60.58;19.60;;;;;;;;;;4971524;28;20353;-67
2021/12/28 13:37:53;;;;;;;72.72;20.52;;;;;;;;;;4971021;28;20037;-65
2021/12/28 13:40:37;;;;;;;61.53;19.63;;;;;;;;;;4971298;28;20021;-65
2021/12/28 13:43:06;;;;;;;70.60;20.35;;;;;;;;;;4971408;28;20321;-65
2021/12/28 13:45:44;;;;;;;60.20;20.23;;;;;;;;;;4953335;28;20056;-65
2021/12/28 13:48:23;;;;;;;64.13;18.88;;;;;;;;;;4952701;28;20413;-65
2021/12/28 13:50:53;;;;;;;61.50;20.70;;;;;;;;;;4972074;28;20026;-67
2021/12/28 13:53:19;;;;;;;56.25;19.85;;;;;;;;;;4970963;28;20556;-66
2021/12/28 13:55:54;;;;;;;61.53;20.77;;;;;;;;;;4970642;28;20410;-66
2021/12/28 13:58:26;;;;;;;57.63;18.67;;;;;;;;;;4953248;28;20356;-66
2021/12/28 14:00:53;;;;;;;55.25;18.52;;;;;;;;;;4970647;28;20349;-66
2021/12/28 14:03:19;;;;;;;55.38;17.70;;;;;;;;;;4970314;28;20449;-66
2021/12/28 14:05:47;;;;;;;54.35;18.33;;;;;;;;;;4953845;28;20306;-65
2021/12/28 14:08:14;;;;;;;64.90;18.42;;;;;;;;;;4971461;28;20361;-66
2021/12/28 14:10:39;;;;;;;56.05;17.40;;;;;;;;;;4953137;28;20314;-66
2021/12/28 14:13:11;;;;;;;57.67;18.40;;;;;;;;;;4952807;28;20313;-66
2021/12/28 14:15:49;;;;;;;54.60;17.05;;;;;;;;;;4970113;28;20576;-66
2021/12/28 14:18:25;;;;;;;41.33;15.73;;;;;;;;;;4970692;28;20391;-66
2021/12/28 14:20:51;;;;;;;45.95;16.13;;;;;;;;;;4970402;28;20471;-65
2021/12/28 14:23:32;;;;;;;51.90;16.10;;;;;;;;;;4971604;28;20408;-66
2021/12/28 14:26:09;;;;;;;40.75;16.13;;;;;;;;;;4952806;28;20340;-65